Time;durP1;ratioP1;P1;durP2;ratioP2;P2;SDS_P1;SDS_P2;PMS_P1;PMS_P2;Temp;Humidity;BMP_temperature;BMP_pressure;BME280_temperature;BME280_humidity;BME280_pressure;Samples;Min_cycle;Max_cycle;Signal;HPM_P1;HPM_P2
2023/08/25 00:00:09;;;;;;;2.65;2.03;;;;;;;23.75;100.00;99707.53;4750752;30;20059;-92
2023/08/25 00:02:37;;;;;;;1.63;1.52;;;;;;;23.75;100.00;99716.81;4767937;30;20055;-90
2023/08/25 00:05:06;;;;;;;1.17;1.10;;;;;;;23.48;100.00;99683.97;4766574;29;20464;-91
2023/08/25 00:07:32;;;;;;;0.85;0.85;;;;;;;23.71;100.00;99719.19;4737728;29;20100;-91
2023/08/25 00:09:57;;;;;;;2.08;0.60;;;;;;;23.81;100.00;99736.56;4751502;30;20479;-92
2023/08/25 00:12:23;;;;;;;2.40;2.20;;;;;;;23.71;100.00;99713.50;4753662;30;20043;-91
2023/08/25 00:14:49;;;;;;;1.60;1.50;;;;;;;23.82;100.00;99724.69;4765559;30;20050;-91
2023/08/25 00:17:14;;;;;;;1.40;0.98;;;;;;;23.71;100.00;99699.34;4736631;30;20047;-91
2023/08/25 00:19:40;;;;;;;1.05;1.05;;;;;;;23.72;100.00;99698.06;4752778;30;20058;-91
2023/08/25 00:22:05;;;;;;;1.30;1.20;;;;;;;23.69;100.00;99701.97;4759322;30;20494;-91
2023/08/25 00:24:34;;;;;;;2.00;1.35;;;;;;;23.66;100.00;99703.78;4750990;30;20050;-91
2023/08/25 00:27:00;;;;;;;1.65;1.55;;;;;;;23.57;100.00;99686.44;4737129;30;20864;-91
2023/08/25 00:29:25;;;;;;;1.02;0.93;;;;;;;23.60;100.00;99691.78;4744307;30;20055;-91
2023/08/25 00:31:51;;;;;;;2.42;1.70;;;;;;;23.47;100.00;99677.53;4765680;29;20081;-91
2023/08/25 00:34:17;;;;;;;1.55;1.10;;;;;;;23.40;100.00;99680.97;4737179;30;20059;-92
2023/08/25 00:36:43;;;;;;;1.90;1.77;;;;;;;23.36;100.00;99666.34;4781567;29;20031;-90
2023/08/25 00:39:10;;;;;;;1.98;1.67;;;;;;;23.35;100.00;99666.88;4766962;30;20135;-90
2023/08/25 00:41:36;;;;;;;0.63;0.63;;;;;;;23.40;100.00;99678.13;4766589;30;20058;-91
2023/08/25 00:44:02;;;;;;;1.85;1.13;;;;;;;23.44;100.00;99684.28;4764437;30;20506;-91
2023/08/25 00:46:28;;;;;;;1.33;1.02;;;;;;;23.34;100.00;99674.59;4745877;30;20051;-91
2023/08/25 00:48:54;;;;;;;1.50;1.40;;;;;;;23.35;100.00;99676.13;4767131;30;20055;-90
2023/08/25 00:51:21;;;;;;;1.20;1.05;;;;;;;23.35;100.00;99678.19;4753415;30;20138;-91
2023/08/25 00:53:48;;;;;;;1.95;1.85;;;;;;;23.37;100.00;99678.44;4769569;30;20581;-90
2023/08/25 00:56:16;;;;;;;1.30;1.10;;;;;;;23.34;100.00;99685.16;4768200;30;20131;-91
2023/08/25 00:58:41;;;;;;;2.30;1.83;;;;;;;23.26;100.00;99668.00;4760950;30;20054;-90
2023/08/25 01:01:07;;;;;;;1.23;1.13;;;;;;;23.19;100.00;99663.72;4752181;29;20047;-91
2023/08/25 01:03:36;;;;;;;3.00;1.42;;;;;;;23.21;100.00;99661.13;4743967;30;20122;-91
2023/08/25 01:06:02;;;;;;;1.50;1.40;;;;;;;23.20;100.00;99653.94;4758672;30;20054;-90
2023/08/25 01:08:28;;;;;;;1.05;0.85;;;;;;;23.21;100.00;99654.72;4751829;30;20514;-91
2023/08/25 01:11:03;;;;;;;1.55;1.45;;;;;;;22.94;100.00;99619.81;4772510;29;20043;-92
2023/08/25 01:13:58;;;;;;;0.93;0.80;;;;;;;23.19;100.00;99655.25;4779198;30;20047;-91
2023/08/25 01:16:30;;;;;;;1.58;1.48;;;;;;;23.23;100.00;99663.44;4767769;30;20066;-91
2023/08/25 01:18:56;;;;;;;1.55;1.45;;;;;;;23.22;100.00;99657.00;4765927;30;20050;-90
2023/08/25 01:21:22;;;;;;;0.88;0.88;;;;;;;23.11;100.00;99637.34;4763012;30;20463;-91
2023/08/25 01:23:59;;;;;;;2.47;1.65;;;;;;;23.09;100.00;99634.25;4767458;30;20498;-90
2023/08/25 01:26:25;;;;;;;9.63;3.50;;;;;;;23.19;100.00;99646.75;4764828;30;20058;-90
2023/08/25 01:28:51;;;;;;;1.67;1.45;;;;;;;23.10;100.00;99624.47;4764636;30;20073;-91
2023/08/25 01:31:19;;;;;;;2.55;1.92;;;;;;;23.02;100.00;99620.72;4733972;30;20047;-90
2023/08/25 01:33:46;;;;;;;5.32;1.67;;;;;;;22.97;100.00;99601.75;4755001;30;20507;-91
2023/08/25 01:36:20;;;;;;;1.38;1.27;;;;;;;23.03;100.00;99605.28;4749893;30;20040;-91
2023/08/25 01:39:06;;;;;;;1.70;1.40;;;;;;;23.03;100.00;99593.22;4779935;30;20080;-91
2023/08/25 01:41:45;;;;;;;1.25;1.20;;;;;;;22.96;100.00;99569.13;4757978;30;20121;-92
2023/08/25 01:44:12;;;;;;;4.30;2.80;;;;;;;23.00;100.00;99563.94;4768845;29;20108;-91
2023/08/25 01:46:38;;;;;;;2.45;2.22;;;;;;;22.84;100.00;99542.28;4754544;30;20058;-91
2023/08/25 01:49:05;;;;;;;2.30;2.10;;;;;;;22.97;100.00;99572.72;4761332;30;20051;-91
2023/08/25 01:51:31;;;;;;;6.22;1.55;;;;;;;22.84;100.00;99570.56;4785922;30;20383;-91
2023/08/25 01:53:57;;;;;;;1.48;1.35;;;;;;;22.89;100.00;99575.38;4755024;30;20130;-91
2023/08/25 01:56:23;;;;;;;1.58;1.48;;;;;;;22.87;100.00;99583.63;4765170;30;20047;-91
2023/08/25 01:58:50;;;;;;;1.27;1.02;;;;;;;22.86;100.00;99590.59;4761539;30;20470;-92
2023/08/25 02:01:16;;;;;;;2.55;2.00;;;;;;;22.94;100.00;99614.16;4755509;30;20047;-91
2023/08/25 02:03:42;;;;;;;3.80;2.33;;;;;;;22.97;100.00;99634.97;4754854;30;20051;-91
2023/08/25 02:06:10;;;;;;;2.78;1.13;;;;;;;23.06;100.00;99682.66;4756069;30;20043;-90
2023/08/25 02:08:36;;;;;;;1.02;0.95;;;;;;;22.91;100.00;99711.38;4755815;30;20051;-91
2023/08/25 02:11:03;;;;;;;1.23;1.13;;;;;;;22.59;100.00;99742.25;4775829;30;20045;-91
2023/08/25 02:13:28;;;;;;;3.20;1.80;;;;;;;22.41;100.00;99753.41;4766422;30;20051;-91
2023/08/25 02:15:54;;;;;;;1.73;1.63;;;;;;;22.45;100.00;99765.22;4769367;30;20051;-91
2023/08/25 02:18:20;;;;;;;4.05;1.30;;;;;;;22.61;100.00;99761.47;4760660;30;20495;-92
2023/08/25 02:20:45;;;;;;;3.92;2.15;;;;;;;22.45;100.00;99725.66;4781569;29;20112;-91
2023/08/25 02:23:12;;;;;;;1.95;1.77;;;;;;;22.80;100.00;99727.69;4741137;30;20075;-93
2023/08/25 02:25:38;;;;;;;2.17;1.85;;;;;;;22.60;100.00;99663.84;4754607;30;20137;-91
2023/08/25 02:28:04;;;;;;;7.32;1.27;;;;;;;22.90;100.00;99706.22;4772759;29;20391;-90
2023/08/25 02:30:30;;;;;;;1.38;1.15;;;;;;;22.79;100.00;99701.47;4754267;30;20051;-91
2023/08/25 02:32:56;;;;;;;0.63;0.60;;;;;;;22.89;100.00;99736.56;4753945;30;20043;-91
2023/08/25 02:35:23;;;;;;;1.35;1.25;;;;;;;22.97;100.00;99762.97;4755054;30;20077;-90
2023/08/25 02:38:06;;;;;;;1.38;1.27;;;;;;;22.91;100.00;99756.63;4770148;30;20499;-90
2023/08/25 02:40:33;;;;;;;1.50;1.17;;;;;;;22.97;100.00;99770.72;4752627;30;20527;-91
2023/08/25 02:43:00;;;;;;;1.35;1.10;;;;;;;22.73;100.00;99723.38;4777441;30;20043;-91
2023/08/25 02:45:26;;;;;;;2.42;1.83;;;;;;;23.05;100.00;99766.75;4770565;30;20104;-91
2023/08/25 02:47:52;;;;;;;2.20;1.92;;;;;;;22.98;100.00;99756.03;4754919;30;20054;-91
2023/08/25 02:50:19;;;;;;;5.55;1.50;;;;;;;23.00;100.00;99752.69;4738462;30;20054;-92
2023/08/25 02:52:44;;;;;;;3.10;1.98;;;;;;;23.06;100.00;99773.94;4781524;30;20055;-92
2023/08/25 02:55:11;;;;;;;1.05;1.00;;;;;;;23.09;100.00;99795.50;4754481;30;20506;-92
2023/08/25 02:57:37;;;;;;;2.20;1.70;;;;;;;23.04;100.00;99804.84;4741408;30;20108;-91
2023/08/25 03:00:04;;;;;;;0.85;0.80;;;;;;;23.02;100.00;99796.09;4739367;30;20472;-91
2023/08/25 03:02:30;;;;;;;2.00;1.73;;;;;;;23.03;100.00;99789.16;4768950;30;20426;-91
2023/08/25 03:04:57;;;;;;;1.98;1.70;;;;;;;23.06;100.00;99796.59;4776312;30;20083;-92
2023/08/25 03:07:23;;;;;;;1.83;1.42;;;;;;;23.08;100.00;99779.84;4740890;30;20054;-94
2023/08/25 03:09:50;;;;;;;1.02;0.95;;;;;;;23.27;100.00;99804.59;4764281;29;20087;-93
2023/08/25 03:12:15;;;;;;;2.40;2.20;;;;;;;23.24;100.00;99784.56;4755783;30;20078;-92
2023/08/25 03:14:42;;;;;;;1.27;0.80;;;;;;;23.21;100.00;99779.97;4751066;30;20044;-91
2023/08/25 03:17:09;;;;;;;2.50;1.77;;;;;;;23.41;100.00;99786.47;4766763;30;20838;-91
2023/08/25 03:19:37;;;;;;;0.85;0.85;;;;;;;23.34;100.00;99775.72;4754364;30;20043;-91
2023/08/25 03:22:04;;;;;;;0.50;0.50;;;;;;;23.48;100.00;99785.88;4747300;30;20051;-90
2023/08/25 03:24:32;;;;;;;0.68;0.68;;;;;;;23.42;100.00;99777.41;4753740;30;20577;-91
2023/08/25 03:26:58;;;;;;;1.83;1.10;;;;;;;23.35;100.00;99765.94;4767183;30;20054;-92
2023/08/25 03:29:25;;;;;;;0.98;0.95;;;;;;;23.32;100.00;99764.94;4759233;30;20059;-92
2023/08/25 03:31:51;;;;;;;0.70;0.70;;;;;;;23.37;100.00;99763.34;4769072;30;20472;-92
2023/08/25 03:34:17;;;;;;;0.50;0.38;;;;;;;23.40;100.00;99750.94;4762664;30;20116;-91
2023/08/25 03:36:42;;;;;;;0.88;0.80;;;;;;;23.41;100.00;99741.94;4754894;30;20130;-92
2023/08/25 03:39:10;;;;;;;0.40;0.30;;;;;;;23.31;100.00;99723.00;4767450;30;20131;-93
2023/08/25 03:41:36;;;;;;;0.73;0.70;;;;;;;23.44;100.00;99745.78;4770363;30;20075;-91
2023/08/25 03:44:02;;;;;;;0.80;0.52;;;;;;;23.44;100.00;99745.78;4754317;30;20085;-91
2023/08/25 03:46:28;;;;;;;1.15;0.80;;;;;;;23.37;100.00;99732.97;4755936;29;20054;-93
2023/08/25 03:48:54;;;;;;;0.70;0.70;;;;;;;23.45;100.00;99730.34;4785716;29;20463;-91
2023/08/25 03:51:20;;;;;;;0.65;0.65;;;;;;;23.37;100.00;99730.16;4783976;29;20074;-91
2023/08/25 03:53:45;;;;;;;0.52;0.38;;;;;;;23.44;100.00;99729.56;4771801;29;20074;-92
2023/08/25 03:56:11;;;;;;;2.05;1.35;;;;;;;23.44;100.00;99737.28;4787001;29;20148;-91
2023/08/25 03:58:38;;;;;;;0.90;0.68;;;;;;;23.40;100.00;99729.06;4783613;29;20047;-92
2023/08/25 04:01:03;;;;;;;0.93;0.93;;;;;;;23.13;100.00;99677.16;4773469;29;20123;-92
2023/08/25 04:03:29;;;;;;;1.25;1.15;;;;;;;22.98;100.00;99676.84;4762081;29;20042;-92
2023/08/25 04:05:55;;;;;;;0.95;0.73;;;;;;;23.19;100.00;99703.34;4785842;29;20047;-91
2023/08/25 04:08:21;;;;;;;1.15;1.05;;;;;;;23.24;100.00;99694.03;4794543;29;20418;-90
2023/08/25 04:10:47;;;;;;;1.02;0.98;;;;;;;23.20;100.00;99693.56;4785142;29;20058;-91
2023/08/25 04:13:13;;;;;;;0.60;0.57;;;;;;;23.24;100.00;99694.03;4763033;29;20502;-91
2023/08/25 04:15:39;;;;;;;1.92;1.73;;;;;;;23.17;100.00;99700.25;4772220;29;20125;-91
2023/08/25 04:18:06;;;;;;;1.38;1.20;;;;;;;23.23;100.00;99708.69;4770778;29;20070;-92
2023/08/25 04:20:32;;;;;;;0.73;0.73;;;;;;;23.27;100.00;99702.75;4771601;29;20074;-92
2023/08/25 04:23:01;;;;;;;1.25;0.70;;;;;;;23.21;100.00;99697.91;4801907;29;20091;-91
2023/08/25 04:25:29;;;;;;;0.90;0.90;;;;;;;23.10;100.00;99689.56;4754906;29;20044;-92
2023/08/25 04:38:32;;;;;;;1.13;1.10;;;;;;;23.19;100.00;99692.03;5093396;27;20899;-93
2023/08/25 04:41:02;;;;;;;2.05;1.20;;;;;;;23.26;100.00;99713.28;5044317;28;20672;-93
2023/08/25 04:43:30;;;;;;;1.48;1.38;;;;;;;23.28;100.00;99733.34;5051647;28;20504;-93
2023/08/25 04:45:56;;;;;;;0.65;0.65;;;;;;;23.22;100.00;99741.88;5041328;28;20049;-93
2023/08/25 04:48:33;;;;;;;1.00;0.90;;;;;;;22.95;100.00;99723.16;5079266;28;20062;-94
2023/08/25 04:50:59;;;;;;;1.83;1.13;;;;;;;23.15;100.00;99750.97;5051715;28;20040;-95
2023/08/25 04:53:25;;;;;;;1.30;1.20;;;;;;;23.13;100.00;99747.16;5051834;28;20024;-95
2023/08/25 04:55:51;;;;;;;0.80;0.70;;;;;;;23.01;100.00;99721.03;5052380;28;20040;-95
2023/08/25 04:58:16;;;;;;;1.35;1.20;;;;;;;23.05;100.00;99715.84;5066710;28;20055;-94
2023/08/25 05:00:42;;;;;;;1.10;1.10;;;;;;;23.09;100.00;99710.66;5065301;28;20031;-93
2023/08/25 05:03:14;;;;;;;1.80;1.27;;;;;;;23.36;100.00;99734.28;5038919;28;20025;-95
2023/08/25 05:05:39;;;;;;;1.60;1.50;;;;;;;23.27;100.00;99723.31;5050228;28;20035;-94
2023/08/25 05:08:06;;;;;;;19.77;1.98;;;;;;;23.42;100.00;99740.63;5046476;28;20044;-94
2023/08/25 05:10:31;;;;;;;2.53;1.58;;;;;;;23.45;100.00;99727.50;5058176;28;20182;-94
2023/08/25 05:12:57;;;;;;;0.40;0.40;;;;;;;23.29;100.00;99695.25;5059841;28;20070;-93
2023/08/25 05:15:23;;;;;;;1.25;1.15;;;;;;;23.37;100.00;99701.09;5048978;28;20036;-93
2023/08/25 05:17:50;;;;;;;1.10;1.02;;;;;;;23.40;100.00;99694.34;5041416;28;20025;-95
2023/08/25 05:20:37;;;;;;;1.08;1.00;;;;;;;23.68;100.00;99734.41;5058881;28;20032;-95
2023/08/25 05:23:05;;;;;;;0.75;0.75;;;;;;;23.31;100.00;99689.06;5043094;28;20047;-93
2023/08/25 05:25:31;;;;;;;0.73;0.63;;;;;;;23.50;100.00;99735.91;5043156;28;20474;-95
2023/08/25 05:27:57;;;;;;;2.20;0.98;;;;;;;23.13;100.00;99691.31;5056479;28;20055;-96
2023/08/25 05:30:23;;;;;;;1.30;1.20;;;;;;;23.19;100.00;99700.50;5057729;28;20032;-95
2023/08/25 05:32:51;;;;;;;0.63;0.63;;;;;;;23.21;100.00;99689.41;5063523;28;20056;-95
2023/08/25 05:35:24;;;;;;;1.35;1.25;;;;;;;23.37;100.00;99707.50;5055977;28;20033;-95
2023/08/25 05:37:51;;;;;;;0.75;0.75;;;;;;;23.52;100.00;99718.41;5046058;28;20406;-95
2023/08/25 05:40:17;;;;;;;1.15;1.05;;;;;;;23.28;100.00;99671.09;5044205;28;20032;-95
2023/08/25 05:42:44;;;;;;;1.30;1.20;;;;;;;23.55;100.00;99701.13;5043625;28;20147;-95
2023/08/25 05:45:10;;;;;;;2.10;1.58;;;;;;;23.56;100.00;99701.88;5054599;28;20140;-95
2023/08/25 05:47:54;;;;;;;0.68;0.68;;;;;;;23.53;100.00;99674.66;5047856;28;20072;-95
2023/08/25 05:50:28;;;;;;;0.70;0.70;;;;;;;23.76;100.00;99681.53;5040295;28;20436;-94
2023/08/25 05:53:26;;;;;;;1.30;1.20;;;;;;;24.04;100.00;99672.59;5040291;28;20128;-96
2023/08/25 05:57:01;;;;;;;1.13;1.00;;;;;;;24.38;100.00;99675.69;5062865;28;20032;-96
2023/08/25 05:59:51;;;;;;;0.55;0.55;;;;;;;24.74;100.00;99708.06;4970066;23;20023;-93
2023/08/25 06:02:17;;;;;;;0.90;0.90;;;;;;;25.00;100.00;99724.34;5039417;28;20489;-93
2023/08/25 06:04:42;;;;;;;1.13;1.02;;;;;;;25.15;100.00;99726.66;5025413;28;20029;-90
2023/08/25 06:07:08;;;;;;;1.73;1.63;;;;;;;25.26;100.00;99715.09;5029264;28;20128;-92
2023/08/25 06:09:33;;;;;;;0.75;0.75;;;;;;;25.41;100.00;99716.06;5004340;28;20048;-94
2023/08/25 06:11:59;;;;;;;0.70;0.70;;;;;;;25.68;100.00;99716.78;5039721;28;20940;-93
2023/08/25 06:14:25;;;;;;;0.60;0.60;;;;;;;25.92;100.00;99727.13;5040662;28;20493;-94
2023/08/25 06:16:51;;;;;;;4.32;1.23;;;;;;;26.22;100.00;99723.88;5045177;28;20052;-94
2023/08/25 06:19:16;;;;;;;0.60;0.43;;;;;;;26.26;100.00;99708.00;5047123;28;20314;-92
2023/08/25 06:21:42;;;;;;;1.30;0.98;;;;;;;26.47;100.00;99716.53;5041541;28;20031;-92
2023/08/25 06:24:07;;;;;;;0.60;0.60;;;;;;;26.51;100.00;99688.50;5040819;28;20501;-93
2023/08/25 06:26:33;;;;;;;0.20;0.20;;;;;;;26.70;100.00;99706.09;5042349;28;20029;-94
2023/08/25 06:28:59;;;;;;;1.75;1.33;;;;;;;27.07;100.00;99721.97;5044621;28;20067;-94
2023/08/25 06:31:24;;;;;;;0.90;0.85;;;;;;;27.25;100.00;99708.78;5031911;28;20057;-94
2023/08/25 06:33:50;;;;;;;0.75;0.60;;;;;;;27.40;100.00;99711.72;5009829;28;20038;-95
2023/08/25 06:36:16;;;;;;;2.58;1.10;;;;;;;27.40;100.00;99700.31;5044501;28;20160;-93
2023/08/25 06:38:41;;;;;;;1.48;1.10;;;;;;;27.67;100.00;99710.16;5045561;28;20061;-93
2023/08/25 06:41:07;;;;;;;0.82;0.82;;;;;;;27.84;100.00;99715.34;5021890;28;20033;-94
2023/08/25 06:43:33;;;;;;;0.73;0.73;;;;;;;28.06;100.00;99711.06;5047043;28;20605;-92
2023/08/25 06:45:59;;;;;;;0.40;0.40;;;;;;;28.12;98.48;99712.41;5037199;28;20120;-95
2023/08/25 06:48:25;;;;;;;0.80;0.80;;;;;;;27.85;100.00;99716.13;5045595;28;20040;-94
2023/08/25 06:50:50;;;;;;;0.55;0.55;;;;;;;27.69;100.00;99718.16;5045353;28;20439;-94
2023/08/25 06:53:16;;;;;;;1.25;0.50;;;;;;;27.64;100.00;99722.69;5045972;28;20052;-91
2023/08/25 06:55:41;;;;;;;3.92;2.10;;;;;;;27.92;100.00;99736.09;5039963;28;20025;-93
2023/08/25 06:58:07;;;;;;;0.73;0.73;;;;;;;27.95;100.00;99734.19;5027761;28;20492;-92
2023/08/25 07:00:33;;;;;;;0.40;0.40;;;;;;;28.11;100.00;99724.38;5042204;28;20041;-95
2023/08/25 07:02:59;;;;;;;2.13;1.08;;;;;;;28.38;100.00;99730.53;5043326;28;20551;-94
2023/08/25 07:05:25;;;;;;;1.15;1.02;;;;;;;28.55;100.00;99719.31;5028728;28;20037;-95
2023/08/25 07:07:51;;;;;;;0.52;0.52;;;;;;;28.78;100.00;99722.19;5014083;28;20559;-94
2023/08/25 07:10:17;;;;;;;0.50;0.50;;;;;;;28.87;99.41;99722.41;5034060;28;20059;-94
2023/08/25 07:12:42;;;;;;;1.55;1.45;;;;;;;28.83;100.00;99713.44;5036184;28;20033;-94
2023/08/25 07:15:09;;;;;;;3.10;0.90;;;;;;;28.98;100.00;99726.94;5048249;28;20029;-95
2023/08/25 07:17:34;;;;;;;1.73;1.00;;;;;;;29.21;98.89;99719.09;5039006;28;20051;-96
2023/08/25 07:20:00;;;;;;;0.88;0.73;;;;;;;29.60;98.03;99724.13;5026486;28;20120;-90
2023/08/25 07:22:26;;;;;;;0.80;0.80;;;;;;;29.79;96.00;99720.06;5043753;28;20041;-95
2023/08/25 07:24:53;;;;;;;1.27;1.17;;;;;;;29.57;95.20;99716.72;5036300;28;20406;-95
2023/08/25 07:27:22;;;;;;;1.13;1.00;;;;;;;28.97;95.33;99726.19;5025054;28;20042;-93
2023/08/25 07:29:48;;;;;;;0.80;0.77;;;;;;;28.65;98.58;99732.44;5021873;28;20036;-93
2023/08/25 07:32:13;;;;;;;1.63;1.20;;;;;;;28.32;100.00;99733.56;5032311;28;20541;-92
2023/08/25 07:34:44;;;;;;;0.65;0.65;;;;;;;27.97;100.00;99731.53;5041146;28;20033;-92
2023/08/25 07:37:10;;;;;;;0.95;0.88;;;;;;;27.79;100.00;99737.00;5041240;28;20052;-93
2023/08/25 07:39:35;;;;;;;2.03;1.83;;;;;;;27.73;100.00;99739.25;5047391;28;20060;-93
2023/08/25 07:42:01;;;;;;;1.30;1.20;;;;;;;27.83;100.00;99740.22;5044882;28;20021;-92
2023/08/25 07:44:26;;;;;;;6.85;1.13;;;;;;;27.85;100.00;99724.66;5047125;28;20035;-88
2023/08/25 07:46:52;;;;;;;0.32;0.32;;;;;;;28.09;100.00;99735.59;5025720;28;20097;-93
2023/08/25 07:49:18;;;;;;;0.68;0.68;;;;;;;28.23;100.00;99751.97;5024918;28;20041;-94
2023/08/25 07:51:43;;;;;;;1.33;1.05;;;;;;;28.17;99.06;99739.22;5021459;28;20032;-92
2023/08/25 07:54:09;;;;;;;1.17;0.63;;;;;;;28.38;96.25;99708.47;5048779;28;20033;-94
2023/08/25 07:56:34;;;;;;;1.10;0.88;;;;;;;28.93;86.66;99742.16;5023352;28;20037;-94
2023/08/25 07:59:00;;;;;;;0.65;0.65;;;;;;;28.89;82.08;99734.00;5037962;28;20520;-93
2023/08/25 08:01:26;;;;;;;0.73;0.70;;;;;;;29.18;78.23;99731.66;5013264;28;20045;-94
2023/08/25 08:03:51;;;;;;;0.88;0.88;;;;;;;29.39;75.15;99720.78;5022089;28;20033;-94
2023/08/25 08:06:17;;;;;;;0.40;0.40;;;;;;;29.77;73.79;99722.72;5027787;28;20052;-93
2023/08/25 08:08:43;;;;;;;1.45;1.30;;;;;;;29.92;72.54;99717.00;5018263;28;20670;-94
2023/08/25 08:11:09;;;;;;;0.70;0.70;;;;;;;29.64;71.95;99715.91;5036760;28;20021;-93
2023/08/25 08:13:35;;;;;;;0.80;0.80;;;;;;;29.49;76.78;99710.28;5022548;28;20045;-93
2023/08/25 08:16:01;;;;;;;0.63;0.63;;;;;;;29.88;77.17;99716.63;5012076;28;20029;-94
2023/08/25 08:18:26;;;;;;;3.88;1.85;;;;;;;30.26;73.19;99719.25;5031839;28;20030;-94
2023/08/25 08:20:53;;;;;;;0.73;0.60;;;;;;;30.62;71.79;99713.09;5022940;28;20036;-94
2023/08/25 08:23:18;;;;;;;1.02;0.90;;;;;;;30.80;68.13;99700.34;5034228;28;20033;-94
2023/08/25 08:25:44;;;;;;;1.77;1.42;;;;;;;30.77;70.34;99710.13;5019577;28;20033;-93
2023/08/25 08:28:09;;;;;;;1.90;1.35;;;;;;;30.52;71.25;99704.41;5027438;28;20812;-93
2023/08/25 08:30:35;;;;;;;0.95;0.90;;;;;;;30.33;72.02;99699.16;5030769;28;20183;-93
2023/08/25 08:33:01;;;;;;;1.30;1.02;;;;;;;30.64;72.23;99708.31;5015425;28;20029;-93
2023/08/25 08:35:26;;;;;;;1.60;1.50;;;;;;;30.95;72.12;99717.38;5022737;28;20441;-94
2023/08/25 08:37:52;;;;;;;1.00;0.98;;;;;;;31.15;71.93;99713.41;5051023;28;20055;-95
2023/08/25 08:40:20;;;;;;;1.23;1.05;;;;;;;31.37;70.50;99718.13;5038570;28;20037;-95
2023/08/25 08:42:47;;;;;;;0.90;0.90;;;;;;;31.16;69.75;99699.84;5015902;28;20119;-94
2023/08/25 08:45:16;;;;;;;1.45;1.35;;;;;;;30.79;71.33;99713.16;5022626;28;20036;-94
2023/08/25 08:47:41;;;;;;;1.50;1.33;;;;;;;30.59;73.45;99709.31;5032189;28;20062;-95
2023/08/25 08:50:07;;;;;;;1.20;1.02;;;;;;;30.94;73.43;99702.31;5044476;28;20124;-95
2023/08/25 08:52:33;;;;;;;1.92;1.13;;;;;;;31.30;69.08;99701.75;5043681;28;20401;-94
2023/08/25 08:54:59;;;;;;;2.50;1.48;;;;;;;31.60;67.49;99689.22;5012919;28;20033;-95
2023/08/25 08:57:26;;;;;;;1.67;1.00;;;;;;;31.79;66.49;99697.19;5009706;28;20455;-95
2023/08/25 08:59:52;;;;;;;0.77;0.70;;;;;;;31.86;65.94;99699.22;5031924;28;20040;-95
2023/08/25 09:02:20;;;;;;;0.70;0.70;;;;;;;32.09;66.59;99688.19;5035290;28;20025;-95
2023/08/25 09:04:47;;;;;;;0.88;0.88;;;;;;;31.97;65.24;99684.31;5042894;28;20029;-95
2023/08/25 09:07:13;;;;;;;1.95;1.55;;;;;;;31.70;66.57;99664.25;5029689;28;20052;-95
2023/08/25 09:09:40;;;;;;;1.35;1.30;;;;;;;31.83;66.65;99677.44;5045342;28;20029;-94
2023/08/25 09:12:06;;;;;;;1.58;1.27;;;;;;;31.53;70.93;99684.31;5042121;28;20029;-94
2023/08/25 09:14:31;;;;;;;1.40;1.30;;;;;;;31.77;70.20;99665.50;5028341;28;20033;-94
2023/08/25 09:17:00;;;;;;;1.08;1.02;;;;;;;32.17;68.66;99685.97;5039729;28;20036;-94
2023/08/25 09:19:30;;;;;;;1.83;1.20;;;;;;;32.64;66.21;99681.03;5030036;28;20033;-94
2023/08/25 09:21:55;;;;;;;1.83;1.73;;;;;;;32.79;63.97;99683.66;5031623;28;20045;-94
2023/08/25 09:24:21;;;;;;;1.60;1.42;;;;;;;32.62;63.92;99692.38;5037401;28;20064;-95
2023/08/25 09:26:48;;;;;;;2.05;0.98;;;;;;;32.67;64.74;99677.72;5034792;28;20057;-95
2023/08/25 09:29:14;;;;;;;1.52;1.33;;;;;;;33.06;63.20;99690.03;5021961;28;20068;-95
2023/08/25 09:31:41;;;;;;;0.60;0.60;;;;;;;33.04;61.60;99692.75;5027120;28;20385;-94
2023/08/25 09:34:08;;;;;;;1.48;1.38;;;;;;;33.00;62.00;99698.19;5034869;28;20047;-96
2023/08/25 09:36:34;;;;;;;1.92;1.60;;;;;;;32.57;65.11;99691.25;5018416;28;20057;-95
2023/08/25 09:39:02;;;;;;;2.40;1.25;;;;;;;32.92;65.33;99686.06;5052138;28;20578;-96
2023/08/25 09:41:29;;;;;;;1.50;1.40;;;;;;;33.23;62.24;99681.31;5034873;28;20037;-96
2023/08/25 09:43:59;;;;;;;1.02;1.02;;;;;;;33.35;62.43;99690.09;5041924;28;20043;-96
2023/08/25 09:46:29;;;;;;;1.55;1.40;;;;;;;33.81;61.02;99684.16;5031405;28;20028;-94
2023/08/25 09:49:09;;;;;;;1.75;1.15;;;;;;;34.00;57.04;99692.75;5037917;28;20095;-94
2023/08/25 09:51:37;;;;;;;1.33;1.23;;;;;;;33.95;53.85;99690.94;5027904;28;20029;-96
2023/08/25 09:54:07;;;;;;;2.13;1.50;;;;;;;33.68;55.64;99676.78;5024668;28;20451;-95
2023/08/25 09:56:33;;;;;;;1.58;1.23;;;;;;;34.07;55.36;99686.06;5032928;28;20047;-96
2023/08/25 09:59:01;;;;;;;1.17;0.80;;;;;;;33.92;53.73;99679.91;5037344;28;20052;-96
2023/08/25 10:01:26;;;;;;;0.70;0.70;;;;;;;34.06;54.33;99684.53;5030231;28;20064;-94
2023/08/25 10:03:53;;;;;;;2.30;1.77;;;;;;;34.29;52.84;99678.31;5028530;28;20500;-95
2023/08/25 10:06:18;;;;;;;2.05;1.85;;;;;;;34.52;52.45;99671.97;5058546;28;20124;-93
2023/08/25 10:08:44;;;;;;;2.90;1.33;;;;;;;33.98;52.17;99669.56;5040619;28;20120;-94
2023/08/25 10:11:11;;;;;;;2.88;1.10;;;;;;;34.34;51.96;99673.56;5018570;28;20033;-94
2023/08/25 10:13:37;;;;;;;1.55;1.40;;;;;;;34.21;52.45;99663.34;5021064;28;20033;-93
2023/08/25 10:16:04;;;;;;;1.15;1.13;;;;;;;34.53;51.89;99667.72;5007653;28;20654;-93
2023/08/25 10:18:35;;;;;;;2.50;1.35;;;;;;;34.38;51.08;99682.47;5032212;28;20555;-94
2023/08/25 10:21:01;;;;;;;1.90;1.80;;;;;;;34.01;53.29;99659.72;5032546;28;20400;-94
2023/08/25 10:23:27;;;;;;;1.17;1.08;;;;;;;33.69;55.21;99663.88;5031919;28;20106;-94
2023/08/25 10:25:52;;;;;;;2.20;1.73;;;;;;;33.28;58.63;99660.13;5011255;28;20098;-93
2023/08/25 10:28:18;;;;;;;2.75;1.88;;;;;;;33.30;58.83;99665.28;5040460;28;20435;-94
2023/08/25 10:30:44;;;;;;;1.85;1.25;;;;;;;33.50;58.18;99674.63;5014037;28;20021;-94
2023/08/25 10:33:10;;;;;;;1.35;1.25;;;;;;;33.97;56.87;99676.69;5025851;28;20047;-94
2023/08/25 10:35:43;;;;;;;1.30;1.20;;;;;;;34.29;54.25;99660.28;5033284;28;20468;-94
2023/08/25 10:38:18;;;;;;;1.38;1.17;;;;;;;34.56;52.94;99669.38;5014164;28;20033;-94
2023/08/25 10:40:54;;;;;;;1.40;1.30;;;;;;;34.75;51.82;99666.41;5025797;28;20091;-94
2023/08/25 10:43:33;;;;;;;1.75;0.95;;;;;;;34.97;49.90;99659.28;5005756;28;20045;-95
2023/08/25 10:46:08;;;;;;;1.55;1.45;;;;;;;34.72;51.47;99664.75;5027022;28;20083;-94
2023/08/25 10:48:34;;;;;;;2.22;2.08;;;;;;;34.96;50.67;99660.66;5015470;28;20128;-95
2023/08/25 10:51:10;;;;;;;5.07;1.55;;;;;;;35.20;48.97;99655.03;5006295;28;20473;-94
2023/08/25 10:53:42;;;;;;;1.23;1.05;;;;;;;34.95;50.20;99656.25;5026304;28;20075;-94
2023/08/25 10:56:17;;;;;;;1.98;1.52;;;;;;;34.93;49.99;99664.78;5040892;28;20037;-94
2023/08/25 10:58:56;;;;;;;2.00;1.80;;;;;;;35.22;50.22;99632.13;5046904;28;20048;-94
2023/08/25 11:01:42;;;;;;;1.30;1.20;;;;;;;34.87;48.51;99647.06;5030850;28;20037;-95
2023/08/25 11:04:13;;;;;;;0.80;0.80;;;;;;;34.80;49.72;99636.50;5037940;28;20110;-95
2023/08/25 11:06:48;;;;;;;1.45;1.35;;;;;;;35.08;48.96;99644.19;5028804;28;20083;-94
2023/08/25 11:09:23;;;;;;;0.95;0.95;;;;;;;35.22;50.66;99647.28;5015110;28;20037;-94
2023/08/25 11:11:55;;;;;;;2.20;2.00;;;;;;;34.90;49.99;99640.06;5056122;28;20119;-94
2023/08/25 11:14:29;;;;;;;1.33;1.08;;;;;;;35.25;49.43;99628.00;5012067;28;20064;-93
2023/08/25 11:16:58;;;;;;;2.13;1.73;;;;;;;35.02;48.31;99638.00;5006611;28;20542;-94
2023/08/25 11:19:25;;;;;;;0.98;0.88;;;;;;;34.53;50.56;99641.81;5046759;28;20033;-93
2023/08/25 11:21:59;;;;;;;2.92;2.15;;;;;;;34.59;52.47;99639.34;5029101;28;20080;-94
2023/08/25 11:24:25;;;;;;;1.13;1.02;;;;;;;34.89;49.85;99641.44;5036339;28;20121;-94
2023/08/25 11:26:50;;;;;;;2.08;1.63;;;;;;;35.14;47.87;99626.56;5046645;28;20496;-93
2023/08/25 11:29:16;;;;;;;1.58;1.48;;;;;;;35.15;46.51;99639.59;5026739;28;20116;-93
2023/08/25 11:31:43;;;;;;;2.97;1.95;;;;;;;35.61;45.68;99639.03;5030665;28;20135;-92
2023/08/25 11:34:09;;;;;;;1.38;1.25;;;;;;;35.43;45.45;99640.72;5024359;28;20444;-93
2023/08/25 11:36:35;;;;;;;1.67;1.58;;;;;;;35.40;46.63;99653.50;5010795;28;20056;-94
2023/08/25 11:39:02;;;;;;;1.98;1.42;;;;;;;35.75;45.10;99648.59;5027769;28;20017;-93
2023/08/25 11:41:28;;;;;;;1.10;1.10;;;;;;;35.52;44.84;99654.28;5029874;28;20041;-93